Time;durP1;ratioP1;P1;durP2;ratioP2;P2;SDS_P1;SDS_P2;PMS_P1;PMS_P2;Temp;Humidity;BMP_temperature;BMP_pressure;BME280_temperature;BME280_humidity;BME280_pressure;Samples;Min_cycle;Max_cycle;Signal;HPM_P1;HPM_P2
2022/06/13 00:00:26;;;;;;;12.33;3.37;;;14.10;99.90;;;;;;4976897;28;20214;-79
2022/06/13 00:02:52;;;;;;;7.07;3.50;;;14.00;99.90;;;;;;4976416;28;20737;-79
2022/06/13 00:05:18;;;;;;;10.53;3.20;;;13.50;99.90;;;;;;4977227;28;20258;-79
2022/06/13 00:07:44;;;;;;;12.17;3.93;;;13.40;99.90;;;;;;4977150;28;20199;-79
2022/06/13 00:10:12;;;;;;;11.20;3.60;;;13.40;99.90;;;;;;4977000;28;20183;-79
2022/06/13 00:12:39;;;;;;;9.20;3.57;;;13.40;99.90;;;;;;4976301;28;20286;-79
2022/06/13 00:15:05;;;;;;;16.97;4.63;;;13.30;99.90;;;;;;4976557;28;20174;-79
2022/06/13 00:17:31;;;;;;;8.07;3.37;;;13.20;99.90;;;;;;4976651;28;20195;-79
2022/06/13 00:19:57;;;;;;;6.70;3.10;;;13.20;99.90;;;;;;4976721;28;20636;-79
2022/06/13 00:22:22;;;;;;;10.13;3.80;;;13.20;99.90;;;;;;4977451;28;20199;-79
2022/06/13 00:24:48;;;;;;;9.53;3.60;;;13.00;99.90;;;;;;4979751;28;20183;-79
2022/06/13 00:27:15;;;;;;;15.40;4.17;;;12.80;99.90;;;;;;4980457;28;20179;-79
2022/06/13 00:29:42;;;;;;;10.93;3.90;;;12.90;99.90;;;;;;4979793;28;20178;-80
2022/06/13 00:32:08;;;;;;;10.00;3.73;;;12.90;99.90;;;;;;4987794;23;20235;-82
2022/06/13 00:34:33;;;;;;;9.23;3.67;;;13.00;99.90;;;;;;4975523;28;20197;-83
2022/06/13 00:36:59;;;;;;;5.30;3.00;;;13.20;99.90;;;;;;4975454;28;20238;-83
2022/06/13 00:39:24;;;;;;;12.13;3.70;;;13.20;99.90;;;;;;4973870;28;20173;-83
2022/06/13 00:41:50;;;;;;;10.83;3.73;;;13.20;99.90;;;;;;4974976;28;20248;-82
2022/06/13 00:44:29;;;;;;;10.97;4.13;;;13.10;99.90;;;;;;4974032;28;20185;-83
2022/06/13 00:46:55;;;;;;;13.43;4.30;;;13.10;99.90;;;;;;4972345;28;20510;-83
2022/06/13 00:49:29;;;;;;;15.17;4.10;;;13.10;99.90;;;;;;4973928;28;20182;-82
2022/06/13 00:52:21;;;;;;;10.40;3.70;;;13.10;99.90;;;;;;4974663;28;20248;-82
2022/06/13 00:54:49;;;;;;;8.93;3.80;;;13.30;99.90;;;;;;4973948;28;20176;-82
2022/06/13 00:57:26;;;;;;;15.93;3.90;;;13.30;99.90;;;;;;4975558;28;20195;-82
2022/06/13 00:59:58;;;;;;;10.53;4.10;;;13.10;99.90;;;;;;4974186;28;20171;-83
2022/06/13 01:02:24;;;;;;;15.30;4.03;;;13.00;99.90;;;;;;4973433;28;20173;-82
2022/06/13 01:04:52;;;;;;;11.10;4.37;;;12.90;99.90;;;;;;4975160;28;20260;-82
2022/06/13 01:07:20;;;;;;;11.83;4.00;;;12.90;99.90;;;;;;4973856;28;20201;-83
2022/06/13 01:12:31;;;;;;;11.40;4.20;;;13.00;99.90;;;;;;4974915;28;20368;-83
2022/06/13 01:15:33;;;;;;;13.27;4.20;;;13.10;99.90;;;;;;4973711;28;20242;-82
2022/06/13 01:18:40;;;;;;;10.30;4.13;;;13.10;99.90;;;;;;4974916;28;20544;-83
2022/06/13 01:21:37;;;;;;;12.13;4.20;;;12.80;99.90;;;;;;4974884;28;20522;-82
2022/06/13 01:24:31;;;;;;;13.60;4.13;;;12.80;99.90;;;;;;4975092;28;20295;-82
2022/06/13 01:27:12;;;;;;;11.57;3.90;;;12.80;99.90;;;;;;4974163;28;20705;-82
2022/06/13 01:29:50;;;;;;;15.37;4.43;;;13.10;99.90;;;;;;4975301;28;20231;-82
2022/06/13 01:32:28;;;;;;;12.43;4.80;;;12.90;99.90;;;;;;4976655;28;20197;-83
2022/06/13 01:35:21;;;;;;;14.03;4.67;;;12.70;99.90;;;;;;4978771;28;20217;-82
2022/06/13 01:38:15;;;;;;;15.63;4.53;;;12.80;99.90;;;;;;4978416;28;20195;-82
2022/06/13 01:40:52;;;;;;;18.00;4.97;;;13.00;99.90;;;;;;4977406;28;20169;-83
2022/06/13 01:43:34;;;;;;;11.60;4.73;;;13.20;99.90;;;;;;4977120;28;20656;-83
2022/06/13 01:46:12;;;;;;;12.97;4.57;;;13.30;99.90;;;;;;4977021;28;20201;-82
2022/06/13 01:48:56;;;;;;;15.93;4.83;;;13.20;99.90;;;;;;4975997;28;20684;-82
2022/06/13 01:51:34;;;;;;;15.57;4.70;;;13.00;99.90;;;;;;4977889;28;20183;-83
2022/06/13 01:54:10;;;;;;;9.97;4.50;;;12.90;99.90;;;;;;4978198;28;20246;-82
2022/06/13 01:57:07;;;;;;;13.03;5.03;;;13.00;99.90;;;;;;4978575;28;20582;-82
2022/06/13 01:59:58;;;;;;;20.10;4.90;;;12.90;99.90;;;;;;4978060;28;20259;-82
2022/06/13 02:02:38;;;;;;;16.03;4.60;;;12.70;99.90;;;;;;4977621;28;20168;-82
2022/06/13 02:05:14;;;;;;;12.93;4.43;;;13.00;99.90;;;;;;4978305;28;20177;-82
2022/06/13 02:07:44;;;;;;;13.40;4.63;;;12.90;99.90;;;;;;4977953;28;20175;-83
2022/06/13 02:10:17;;;;;;;9.40;4.13;;;12.70;99.90;;;;;;4978139;28;20168;-82
2022/06/13 02:12:48;;;;;;;15.40;5.17;;;12.70;99.90;;;;;;4977509;28;20167;-82
2022/06/13 02:15:16;;;;;;;16.87;4.90;;;12.60;99.90;;;;;;4977821;28;20272;-82
2022/06/13 02:17:49;;;;;;;13.77;4.90;;;12.40;99.90;;;;;;4978168;28;20707;-83
2022/06/13 02:20:20;;;;;;;14.00;5.13;;;12.50;99.90;;;;;;4978326;28;20184;-81
2022/06/13 02:22:50;;;;;;;8.60;4.37;;;12.40;99.90;;;;;;4977584;28;20204;-82
2022/06/13 02:25:33;;;;;;;10.80;4.43;;;12.50;99.90;;;;;;4976984;28;20176;-83
2022/06/13 02:28:05;;;;;;;15.03;4.60;;;12.40;99.90;;;;;;4976508;28;20176;-82
2022/06/13 02:30:37;;;;;;;14.63;5.00;;;12.40;99.90;;;;;;4977631;28;20247;-83
2022/06/13 02:33:11;;;;;;;9.17;4.17;;;12.30;99.90;;;;;;4977185;28;20210;-82
2022/06/13 02:35:43;;;;;;;12.50;4.53;;;12.50;99.90;;;;;;4977389;28;20236;-82
2022/06/13 02:38:17;;;;;;;10.73;4.67;;;12.70;99.90;;;;;;4977232;28;20241;-82
2022/06/13 02:40:51;;;;;;;8.47;4.10;;;12.60;99.90;;;;;;4976066;28;20556;-83
2022/06/13 02:43:33;;;;;;;13.73;5.00;;;12.50;99.90;;;;;;4977047;28;20259;-82
2022/06/13 02:46:14;;;;;;;12.60;4.20;;;12.80;99.90;;;;;;4975888;28;20201;-83
2022/06/13 02:48:46;;;;;;;11.00;4.23;;;12.70;99.90;;;;;;4973853;28;20731;-83
2022/06/13 02:51:23;;;;;;;11.00;4.13;;;12.70;99.90;;;;;;4975584;28;20183;-82
2022/06/13 02:54:10;;;;;;;13.33;3.90;;;13.00;99.90;;;;;;4977420;28;20285;-82
2022/06/13 03:00:01;;;;;;;15.57;4.67;;;13.10;99.90;;;;;;4977303;28;20183;-82
2022/06/13 03:02:48;;;;;;;13.73;5.40;;;13.30;99.90;;;;;;4975732;28;20256;-82
2022/06/13 03:05:37;;;;;;;13.03;4.17;;;13.30;99.90;;;;;;4977417;28;20168;-82
2022/06/13 03:08:24;;;;;;;13.23;4.57;;;13.30;99.90;;;;;;4976112;28;20204;-83
2022/06/13 03:11:26;;;;;;;18.67;5.73;;;13.20;99.90;;;;;;4977033;28;20749;-82
2022/06/13 03:14:07;;;;;;;13.67;5.10;;;13.20;99.90;;;;;;4975764;28;20298;-82
2022/06/13 03:16:50;;;;;;;15.63;4.77;;;13.20;99.90;;;;;;4975471;28;20254;-82
2022/06/13 03:19:33;;;;;;;15.30;5.10;;;13.10;99.90;;;;;;4976953;28;20195;-83
2022/06/13 03:22:08;;;;;;;17.63;4.67;;;13.10;99.90;;;;;;4976584;28;20176;-82
2022/06/13 03:25:01;;;;;;;9.87;5.00;;;13.10;99.90;;;;;;4975896;28;20209;-82
2022/06/13 03:27:36;;;;;;;12.83;4.87;;;13.00;99.90;;;;;;4976561;28;20199;-82
2022/06/13 03:30:18;;;;;;;14.83;5.47;;;13.10;99.90;;;;;;4975419;28;20181;-83
2022/06/13 03:33:39;;;;;;;17.13;5.23;;;13.10;99.90;;;;;;4974271;28;20193;-82
2022/06/13 03:35:35;;;;;;;16.70;5.53;;;13.20;99.90;;;;;;4976423;28;20201;-82
2022/06/13 03:38:03;;;;;;;15.07;5.80;;;13.20;99.90;;;;;;4976954;28;20256;-83
2022/06/13 03:40:30;;;;;;;16.87;6.40;;;13.00;99.90;;;;;;4976843;28;20184;-82
2022/06/13 03:43:22;;;;;;;18.13;6.00;;;13.10;99.90;;;;;;4975529;28;20182;-81
2022/06/13 03:45:55;;;;;;;12.57;5.40;;;13.10;99.90;;;;;;4976140;28;20201;-82
2022/06/13 03:48:29;;;;;;;18.87;6.00;;;13.00;99.90;;;;;;4973074;28;20193;-81
2022/06/13 03:51:04;;;;;;;17.10;6.57;;;12.90;99.90;;;;;;4974286;28;20188;-82
2022/06/13 03:53:47;;;;;;;16.70;6.50;;;12.80;99.90;;;;;;4975386;28;20214;-82
2022/06/13 03:56:22;;;;;;;15.70;6.30;;;12.70;99.90;;;;;;4974149;28;20211;-82
2022/06/13 03:59:17;;;;;;;16.10;6.43;;;12.90;99.90;;;;;;4975164;28;20180;-82
2022/06/13 04:01:51;;;;;;;13.63;6.17;;;12.90;99.90;;;;;;4974192;28;20664;-82
2022/06/13 04:04:24;;;;;;;16.40;6.10;;;12.80;99.90;;;;;;4975765;28;20237;-82
2022/06/13 04:06:50;;;;;;;32.50;7.90;;;12.90;99.90;;;;;;4974463;28;20214;-81
2022/06/13 04:09:40;;;;;;;14.57;6.50;;;12.80;99.90;;;;;;4974013;28;20183;-84
2022/06/13 04:12:08;;;;;;;21.97;6.40;;;12.80;99.90;;;;;;4973829;28;20175;-81
2022/06/13 04:14:59;;;;;;;14.87;6.47;;;12.80;99.90;;;;;;4974779;28;20258;-82
2022/06/13 04:18:06;;;;;;;16.47;6.03;;;13.10;99.90;;;;;;4975764;28;20195;-82
2022/06/13 04:21:00;;;;;;;18.37;5.87;;;13.30;99.90;;;;;;4975218;28;20257;-83
2022/06/13 04:23:41;;;;;;;17.73;6.23;;;12.90;99.90;;;;;;4973904;28;20669;-83
2022/06/13 04:26:19;;;;;;;16.37;6.10;;;13.20;99.90;;;;;;4974504;28;20201;-82
2022/06/13 04:28:46;;;;;;;16.13;6.30;;;13.10;99.90;;;;;;4975727;28;20242;-82
2022/06/13 04:31:13;;;;;;;16.90;5.60;;;13.00;99.90;;;;;;4973671;28;20192;-82
2022/06/13 04:33:50;;;;;;;13.13;5.20;;;12.90;99.90;;;;;;4975345;28;20645;-82
2022/06/13 04:36:19;;;;;;;11.90;5.57;;;12.80;99.90;;;;;;4973821;28;20200;-82
2022/06/13 04:38:51;;;;;;;15.47;5.43;;;12.80;99.90;;;;;;4975265;28;20176;-82
2022/06/13 04:41:18;;;;;;;16.57;6.27;;;12.80;99.90;;;;;;4974652;28;20173;-82
2022/06/13 04:43:48;;;;;;;12.03;5.27;;;13.00;99.90;;;;;;4975192;28;20172;-82
2022/06/13 04:46:18;;;;;;;13.03;5.63;;;13.20;99.90;;;;;;4975053;28;20202;-82
2022/06/13 04:48:47;;;;;;;13.83;5.23;;;13.30;99.90;;;;;;4973248;28;20643;-82
2022/06/13 04:51:24;;;;;;;11.97;5.37;;;13.10;99.90;;;;;;4975053;28;20178;-82
2022/06/13 04:53:56;;;;;;;11.33;5.03;;;13.30;99.90;;;;;;4976660;28;20578;-80
2022/06/13 04:56:23;;;;;;;10.27;5.20;;;13.50;99.90;;;;;;4973079;28;20310;-80
2022/06/13 04:58:52;;;;;;;13.53;5.60;;;13.40;99.90;;;;;;4974372;28;20194;-81
2022/06/13 05:01:26;;;;;;;10.83;4.83;;;13.60;99.90;;;;;;4975530;28;20641;-82
2022/06/13 05:03:54;;;;;;;15.40;5.17;;;13.40;99.90;;;;;;4974535;28;20179;-81
2022/06/13 05:06:38;;;;;;;13.33;4.47;;;13.60;99.90;;;;;;4978267;28;20313;-81
2022/06/13 05:09:18;;;;;;;10.07;4.53;;;13.90;99.90;;;;;;4977437;28;20184;-81
2022/06/13 05:11:49;;;;;;;10.17;4.20;;;14.10;99.90;;;;;;4977718;28;20186;-81
2022/06/13 05:14:39;;;;;;;8.60;3.50;;;14.10;99.90;;;;;;4978162;28;20234;-80
2022/06/13 05:17:13;;;;;;;5.10;3.23;;;14.00;99.90;;;;;;4979156;28;20191;-81
2022/06/13 05:19:54;;;;;;;6.77;3.63;;;13.90;99.90;;;;;;4978351;28;20263;-81
2022/06/13 05:22:46;;;;;;;8.33;3.30;;;13.90;99.90;;;;;;4977633;28;20230;-82
2022/06/13 05:25:33;;;;;;;8.10;3.00;;;13.90;99.90;;;;;;4978196;28;20641;-81
2022/06/13 05:27:59;;;;;;;9.53;3.63;;;13.90;99.90;;;;;;4981694;28;20232;-82
2022/06/13 05:30:26;;;;;;;5.93;3.40;;;13.90;99.90;;;;;;4986113;28;20172;-82
2022/06/13 05:32:52;;;;;;;8.63;3.13;;;13.90;99.90;;;;;;4986144;28;20176;-82
2022/06/13 05:35:22;;;;;;;10.20;3.80;;;14.00;99.90;;;;;;4985316;28;20196;-82
2022/06/13 05:37:49;;;;;;;6.97;3.00;;;14.00;99.90;;;;;;4987699;28;20183;-83
2022/06/13 05:40:21;;;;;;;8.80;3.50;;;13.90;99.90;;;;;;4985327;28;20171;-82
2022/06/13 05:42:47;;;;;;;8.73;3.33;;;13.90;99.90;;;;;;4982196;28;20179;-82
2022/06/13 05:45:18;;;;;;;10.20;3.47;;;14.00;99.90;;;;;;4987648;28;20168;-83
2022/06/13 05:47:46;;;;;;;13.97;3.70;;;13.80;99.90;;;;;;4979162;28;20270;-83
2022/06/13 05:50:17;;;;;;;11.77;4.20;;;13.90;99.90;;;;;;4985721;28;20160;-83
2022/06/13 05:52:43;;;;;;;11.27;3.90;;;13.90;99.90;;;;;;4983620;28;20179;-83
2022/06/13 05:55:09;;;;;;;7.53;3.03;;;14.00;99.90;;;;;;4985000;28;20248;-83
2022/06/13 05:57:36;;;;;;;12.27;4.10;;;13.90;99.90;;;;;;4986884;28;20188;-83
2022/06/13 06:00:02;;;;;;;8.70;3.53;;;14.00;99.90;;;;;;4984795;28;20175;-83
2022/06/13 06:02:27;;;;;;;13.67;4.27;;;14.10;99.90;;;;;;4983900;28;20183;-84
2022/06/13 06:04:52;;;;;;;8.47;3.57;;;14.00;99.90;;;;;;4985795;28;20179;-81
2022/06/13 06:07:18;;;;;;;10.27;4.03;;;14.10;99.90;;;;;;4987913;28;20195;-83
2022/06/13 06:09:44;;;;;;;13.60;3.80;;;14.20;99.90;;;;;;4983556;28;20187;-83
2022/06/13 06:12:09;;;;;;;14.93;4.27;;;14.20;99.90;;;;;;4985875;28;20637;-82
2022/06/13 06:14:35;;;;;;;9.73;4.13;;;14.30;99.90;;;;;;4983112;28;20204;-84
2022/06/13 06:17:00;;;;;;;7.83;3.70;;;14.30;99.90;;;;;;4984998;28;20212;-82
2022/06/13 06:19:26;;;;;;;12.30;3.67;;;14.40;99.90;;;;;;4987523;28;20168;-83
2022/06/13 06:21:52;;;;;;;11.90;3.63;;;14.50;99.90;;;;;;4984520;28;20259;-83
2022/06/13 06:24:17;;;;;;;11.83;3.90;;;14.60;99.90;;;;;;4983962;28;20564;-83
2022/06/13 06:26:43;;;;;;;13.10;4.17;;;14.70;99.90;;;;;;4984633;28;20692;-82
2022/06/13 06:29:09;;;;;;;13.10;4.23;;;14.80;99.90;;;;;;4987443;28;20267;-82
2022/06/13 06:31:35;;;;;;;8.20;3.67;;;14.80;99.90;;;;;;4982189;28;20287;-83
2022/06/13 06:34:01;;;;;;;9.43;4.40;;;15.00;99.90;;;;;;4987636;28;20212;-83
2022/06/13 06:36:27;;;;;;;9.87;4.10;;;15.00;99.90;;;;;;4985285;28;20228;-82
2022/06/13 06:38:53;;;;;;;15.90;5.90;;;15.10;99.90;;;;;;4985047;28;20175;-84
2022/06/13 06:41:18;;;;;;;10.60;4.73;;;15.10;99.90;;;;;;4983179;28;20182;-84
2022/06/13 06:43:44;;;;;;;8.20;4.00;;;15.20;99.90;;;;;;4984776;28;20183;-83
2022/06/13 06:46:13;;;;;;;12.23;4.37;;;15.50;99.90;;;;;;5000123;23;20229;-84
2022/06/13 06:48:39;;;;;;;13.53;4.90;;;15.70;99.90;;;;;;5026357;28;20536;-87
2022/06/13 06:51:06;;;;;;;13.00;4.90;;;16.00;99.90;;;;;;5026975;28;20179;-84
2022/06/13 06:59:53;;;;;;;10.00;4.13;;;16.60;99.90;;;;;;4994123;28;20210;-83
2022/06/13 07:01:47;;;;;;;11.73;4.53;;;17.70;99.90;;;;;;4995048;28;20198;-81
2022/06/13 07:04:13;;;;;;;14.57;4.40;;;18.10;99.90;;;;;;4993974;28;20698;-82
2022/06/13 07:06:38;;;;;;;13.40;4.37;;;17.70;99.90;;;;;;4993720;28;20171;-83
2022/06/13 07:09:04;;;;;;;13.10;4.20;;;17.90;99.90;;;;;;4993506;28;20179;-82
2022/06/13 07:14:17;;;;;;;9.88;5.43;;;18.50;99.90;;;;;;4994606;28;20210;-82
2022/06/13 07:16:42;;;;;;;13.13;4.43;;;18.70;99.90;;;;;;4993457;28;20167;-82
2022/06/13 07:19:08;;;;;;;9.38;4.78;;;18.80;99.90;;;;;;4994585;28;20590;-83
2022/06/13 07:21:34;;;;;;;11.85;4.72;;;18.80;99.90;;;;;;4994925;28;20679;-82
2022/06/13 07:24:00;;;;;;;19.13;4.80;;;18.70;99.90;;;;;;4994170;28;20175;-84
2022/06/13 07:26:26;;;;;;;16.70;5.07;;;19.30;99.90;;;;;;4992699;28;20262;-82
2022/06/13 07:28:51;;;;;;;9.18;4.43;;;20.00;99.90;;;;;;4993543;28;20198;-83
2022/06/13 07:31:25;;;;;;;12.70;4.88;;;19.40;99.90;;;;;;4993015;28;20659;-80
2022/06/13 07:33:51;;;;;;;9.98;4.32;;;19.40;99.90;;;;;;4993304;28;20195;-82
2022/06/13 07:36:18;;;;;;;10.68;4.55;;;19.50;99.90;;;;;;4993543;28;20179;-82
2022/06/13 07:38:43;;;;;;;9.48;4.32;;;19.50;99.90;;;;;;4993506;28;20636;-82
2022/06/13 07:41:19;;;;;;;15.40;4.32;;;19.50;99.90;;;;;;4992899;28;20179;-81
2022/06/13 07:43:45;;;;;;;9.65;4.75;;;19.50;99.90;;;;;;4993416;28;20182;-81
2022/06/13 07:46:12;;;;;;;13.48;4.40;;;19.60;99.90;;;;;;4994680;28;20553;-83
2022/06/13 07:48:38;;;;;;;14.38;4.97;;;19.70;99.90;;;;;;4993058;28;20186;-81
2022/06/13 07:51:05;;;;;;;13.43;4.85;;;19.40;99.90;;;;;;4995163;28;20179;-82
2022/06/13 07:53:32;;;;;;;15.25;4.53;;;19.70;99.90;;;;;;4995530;28;20250;-81
2022/06/13 07:55:58;;;;;;;13.65;4.05;;;19.90;99.90;;;;;;4995435;28;20172;-83
2022/06/13 07:58:36;;;;;;;9.38;3.80;;;19.90;99.90;;;;;;4992272;28;20174;-81
2022/06/13 08:01:04;;;;;;;13.02;4.32;;;19.60;99.90;;;;;;4991854;28;20254;-82
2022/06/13 08:03:31;;;;;;;10.15;3.90;;;19.40;99.90;;;;;;4992120;28;20551;-81
2022/06/13 08:05:58;;;;;;;15.63;4.50;;;19.50;99.90;;;;;;4992341;28;20179;-81
2022/06/13 08:08:24;;;;;;;17.50;4.47;;;19.20;99.90;;;;;;4995163;28;20187;-82
2022/06/13 08:10:52;;;;;;;8.73;4.00;;;19.50;99.90;;;;;;4993804;28;20191;-81
2022/06/13 08:13:20;;;;;;;11.98;3.55;;;19.20;99.90;;;;;;4993919;28;20214;-81
2022/06/13 08:15:46;;;;;;;7.72;2.95;;;19.00;99.90;;;;;;4994142;28;20663;-82
2022/06/13 08:18:13;;;;;;;10.38;3.50;;;19.50;99.90;;;;;;4994163;28;20182;-82
2022/06/13 08:20:41;;;;;;;14.00;3.63;;;20.20;99.90;;;;;;4994899;28;20178;-82
2022/06/13 08:23:08;;;;;;;8.23;3.10;;;20.60;99.90;;;;;;4994451;28;20199;-80
2022/06/13 08:25:39;;;;;;;15.60;4.90;;;20.30;99.90;;;;;;4994902;28;20175;-81
2022/06/13 08:28:06;;;;;;;11.57;3.15;;;19.40;99.90;;;;;;4994846;28;20230;-82
2022/06/13 08:30:56;;;;;;;8.45;3.42;;;19.20;99.90;;;;;;4994429;28;20180;-82
2022/06/13 08:33:22;;;;;;;9.73;2.92;;;19.80;99.90;;;;;;4994370;28;20195;-82
2022/06/13 08:35:49;;;;;;;9.50;2.95;;;20.90;99.90;;;;;;4995767;28;20205;-83
2022/06/13 08:38:15;;;;;;;11.10;3.28;;;21.20;99.80;;;;;;4993888;28;20182;-82
2022/06/13 08:40:53;;;;;;;5.50;2.85;;;21.80;98.70;;;;;;4994770;28;20184;-82
2022/06/13 08:43:53;;;;;;;7.03;2.80;;;21.40;97.70;;;;;;4994565;28;20241;-82
2022/06/13 08:46:44;;;;;;;9.40;3.17;;;20.60;97.50;;;;;;4994936;28;20191;-82
2022/06/13 08:49:14;;;;;;;11.00;3.15;;;20.10;97.90;;;;;;4995529;28;20282;-82
2022/06/13 08:51:49;;;;;;;14.32;3.75;;;20.00;98.60;;;;;;4994502;28;20206;-81
2022/06/13 08:54:24;;;;;;;8.70;3.05;;;20.30;98.80;;;;;;4995982;28;20202;-83
2022/06/13 08:56:52;;;;;;;9.77;3.10;;;20.60;97.80;;;;;;4995280;28;20509;-82
2022/06/13 08:59:39;;;;;;;7.70;2.38;;;20.50;98.00;;;;;;4994822;28;20543;-83
2022/06/13 09:02:10;;;;;;;7.53;3.30;;;20.10;98.70;;;;;;4995576;28;20191;-82
2022/06/13 09:04:43;;;;;;;16.60;3.15;;;19.70;98.30;;;;;;4995370;28;20175;-83
2022/06/13 09:07:17;;;;;;;8.85;2.75;;;19.80;99.00;;;;;;4994729;28;20214;-82
2022/06/13 09:10:05;;;;;;;8.50;2.88;;;20.10;99.30;;;;;;4994051;28;20524;-81
2022/06/13 09:12:56;;;;;;;9.23;2.90;;;19.80;98.70;;;;;;4993717;28;20273;-81
2022/06/13 09:15:44;;;;;;;6.63;3.10;;;20.50;99.30;;;;;;4994224;28;20207;-81
2022/06/13 09:18:14;;;;;;;6.05;2.42;;;21.40;96.90;;;;;;4994280;28;20190;-81
2022/06/13 09:21:03;;;;;;;10.25;2.53;;;21.60;95.80;;;;;;4994115;28;20234;-81
2022/06/13 09:23:54;;;;;;;9.23;2.70;;;21.70;96.20;;;;;;4995053;28;20184;-81
2022/06/13 09:26:29;;;;;;;8.90;3.05;;;22.30;95.50;;;;;;4994044;28;20167;-81
2022/06/13 09:28:59;;;;;;;9.05;2.85;;;22.30;95.40;;;;;;4994073;28;20185;-82
2022/06/13 09:31:37;;;;;;;8.65;2.55;;;22.10;94.10;;;;;;4993538;28;20192;-81
2022/06/13 09:34:17;;;;;;;10.60;3.22;;;22.60;96.30;;;;;;4993372;28;20277;-80
2022/06/13 09:37:11;;;;;;;8.88;2.55;;;22.50;93.80;;;;;;4993666;28;20210;-83
2022/06/13 09:39:38;;;;;;;7.03;2.60;;;22.10;92.70;;;;;;4993258;28;20219;-82
2022/06/13 09:42:07;;;;;;;13.38;2.63;;;22.40;93.50;;;;;;4994655;28;20254;-80
2022/06/13 09:44:51;;;;;;;8.65;2.75;;;23.00;93.70;;;;;;4996496;28;20202;-80
2022/06/13 09:47:26;;;;;;;4.95;2.08;;;21.70;93.60;;;;;;4995346;28;20210;-81
2022/06/13 09:50:10;;;;;;;12.15;2.70;;;21.80;93.80;;;;;;4997142;28;20270;-80
2022/06/13 09:53:04;;;;;;;9.85;2.63;;;21.90;93.90;;;;;;4998335;28;20276;-81
2022/06/13 09:55:59;;;;;;;5.20;2.15;;;21.40;93.80;;;;;;4998145;28;20175;-82
2022/06/13 09:58:37;;;;;;;7.15;2.08;;;21.10;93.20;;;;;;4997585;28;20233;-81
2022/06/13 10:01:21;;;;;;;9.10;2.20;;;20.60;94.40;;;;;;4996569;28;20178;-83
2022/06/13 10:03:59;;;;;;;6.70;2.10;;;21.70;93.40;;;;;;4995073;28;20163;-86
2022/06/13 10:06:53;;;;;;;6.13;2.10;;;22.60;91.80;;;;;;4995281;28;20198;-86
2022/06/13 10:09:39;;;;;;;4.63;1.75;;;22.00;91.90;;;;;;4996303;28;20210;-84
2022/06/13 10:12:17;;;;;;;3.75;1.60;;;21.70;91.60;;;;;;4996848;28;20663;-85
2022/06/13 10:15:08;;;;;;;3.45;1.58;;;21.00;92.00;;;;;;4997353;28;20215;-84
2022/06/13 10:17:36;;;;;;;7.03;1.63;;;21.10;92.60;;;;;;4996611;28;20179;-86
2022/06/13 10:20:27;;;;;;;6.05;1.90;;;20.70;93.50;;;;;;4995228;28;20730;-84
2022/06/13 10:23:05;;;;;;;6.70;1.70;;;20.60;92.70;;;;;;4993873;28;20203;-87
2022/06/13 10:25:46;;;;;;;4.18;1.73;;;20.60;93.20;;;;;;4994561;28;20230;-87
2022/06/13 10:28:32;;;;;;;2.17;1.45;;;21.30;93.60;;;;;;4995476;28;20321;-86
2022/06/13 10:31:07;;;;;;;5.28;1.70;;;22.90;91.50;;;;;;4995084;28;20262;-85
2022/06/13 10:34:09;;;;;;;4.00;1.50;;;23.30;89.30;;;;;;4993996;28;20655;-85
2022/06/13 10:37:01;;;;;;;4.03;1.52;;;22.10;90.10;;;;;;4994208;28;20167;-84
2022/06/13 10:39:27;;;;;;;3.88;1.50;;;21.30;91.30;;;;;;4995017;28;20175;-84
2022/06/13 10:41:57;;;;;;;7.18;1.73;;;21.70;92.80;;;;;;4993782;28;20197;-83
2022/06/13 10:44:23;;;;;;;4.97;1.70;;;21.90;91.50;;;;;;4996122;28;20237;-81
2022/06/13 10:46:57;;;;;;;4.13;1.58;;;21.90;92.00;;;;;;4995366;28;20193;-83
2022/06/13 10:49:31;;;;;;;4.50;1.80;;;22.70;91.70;;;;;;4997616;28;20255;-83
2022/06/13 10:52:02;;;;;;;6.05;2.00;;;21.90;92.40;;;;;;4995727;28;20639;-81
2022/06/13 10:54:43;;;;;;;8.13;2.17;;;22.30;91.90;;;;;;4996407;28;20207;-81
2022/06/13 10:57:14;;;;;;;7.22;1.50;;;22.90;92.30;;;;;;4996409;28;20179;-82
2022/06/13 10:59:41;;;;;;;3.17;1.40;;;23.30;91.20;;;;;;4996686;28;20176;-82
2022/06/13 11:02:15;;;;;;;3.55;1.38;;;23.40;89.60;;;;;;4994835;28;20187;-82
2022/06/13 11:04:41;;;;;;;1.77;1.20;;;23.30;86.30;;;;;;4997288;28;20181;-84
2022/06/13 11:07:18;;;;;;;3.40;1.30;;;24.00;88.50;;;;;;4997037;28;20179;-85
2022/06/13 11:09:47;;;;;;;4.10;1.60;;;23.90;86.30;;;;;;4996463;28;20180;-84
2022/06/13 11:12:27;;;;;;;3.05;1.35;;;23.80;87.70;;;;;;4998649;28;20274;-84
2022/06/13 11:23:49;;;;;;;3.25;1.50;;;24.60;84.60;;;;;;4997202;28;20218;-85
2022/06/13 11:29:03;;;;;;;3.88;1.55;;;22.70;84.80;;;;;;4997478;28;20223;-85
2022/06/13 11:31:29;;;;;;;7.28;3.15;;;21.30;86.10;;;;;;4996543;28;20194;-84
2022/06/13 11:33:55;;;;;;;6.63;1.90;;;21.20;88.00;;;;;;4995878;28;20199;-83
2022/06/13 11:36:26;;;;;;;3.08;1.20;;;20.90;87.70;;;;;;4996364;28;20172;-85
2022/06/13 11:38:59;;;;;;;4.22;1.40;;;20.60;89.00;;;;;;4995448;28;20538;-83
2022/06/13 11:41:39;;;;;;;7.10;1.50;;;20.40;89.20;;;;;;4994810;28;20198;-87
2022/06/13 11:44:12;;;;;;;3.17;1.45;;;21.20;89.50;;;;;;4995419;28;20784;-85
2022/06/13 11:46:55;;;;;;;3.97;1.20;;;22.20;86.80;;;;;;4995990;28;20624;-84
2022/06/13 11:49:43;;;;;;;2.35;1.27;;;22.30;86.70;;;;;;4995399;28;20194;-84
2022/06/13 11:52:09;;;;;;;2.75;1.15;;;21.70;86.60;;;;;;4995631;28;20201;-85
2022/06/13 11:54:56;;;;;;;2.72;1.00;;;21.80;88.40;;;;;;4995600;28;20195;-84
2022/06/13 11:57:24;;;;;;;2.53;1.20;;;21.80;85.00;;;;;;4995693;28;20171;-84
2022/06/13 11:59:56;;;;;;;1.35;0.85;;;22.60;85.90;;;;;;4996749;28;20694;-83
2022/06/13 12:02:26;;;;;;;3.90;1.20;;;23.30;87.60;;;;;;4994350;28;20195;-84
2022/06/13 12:04:57;;;;;;;1.85;0.90;;;22.70;84.00;;;;;;4994619;28;20233;-83
2022/06/13 12:07:30;;;;;;;3.53;1.77;;;22.10;83.10;;;;;;4994698;28;20263;-83
2022/06/13 12:09:58;;;;;;;4.13;1.15;;;22.30;84.70;;;;;;4994735;28;20175;-83
2022/06/13 12:12:43;;;;;;;3.35;1.17;;;21.70;84.80;;;;;;4994466;28;20575;-83
2022/06/13 12:15:14;;;;;;;4.70;1.00;;;21.30;85.00;;;;;;4994584;28;20202;-85
2022/06/13 12:17:55;;;;;;;4.47;0.90;;;21.00;82.30;;;;;;4997055;28;20152;-84
2022/06/13 12:20:59;;;;;;;5.15;1.20;;;21.00;82.50;;;;;;4995412;28;20178;-84
2022/06/13 12:24:03;;;;;;;5.25;0.70;;;21.10;81.00;;;;;;4992093;28;20194;-83
2022/06/13 12:26:32;;;;;;;2.35;0.93;;;20.70;80.20;;;;;;4979382;28;20183;-84
2022/06/13 12:29:28;;;;;;;1.67;1.10;;;20.80;82.80;;;;;;4994489;28;20187;-83
2022/06/13 12:32:15;;;;;;;1.13;1.00;;;20.80;84.70;;;;;;4995046;28;20210;-85
2022/06/13 12:35:12;;;;;;;2.90;0.93;;;21.20;83.90;;;;;;4994877;28;20194;-83
2022/06/13 12:37:44;;;;;;;2.05;1.02;;;21.30;84.00;;;;;;4995107;28;20187;-82
2022/06/13 12:40:15;;;;;;;4.68;1.00;;;20.90;84.50;;;;;;4995911;28;20655;-82
2022/06/13 12:42:47;;;;;;;5.40;1.23;;;21.20;85.40;;;;;;4995219;28;20547;-84
2022/06/13 12:45:34;;;;;;;4.45;1.05;;;21.20;83.20;;;;;;4994277;28;20737;-85
2022/06/13 12:48:06;;;;;;;1.60;0.90;;;21.10;82.30;;;;;;4994213;28;20179;-85
2022/06/13 12:50:31;;;;;;;2.33;1.20;;;21.20;83.40;;;;;;4995011;28;20258;-84
2022/06/13 12:53:21;;;;;;;2.05;1.10;;;21.00;84.50;;;;;;4993981;28;20300;-85
2022/06/13 12:56:01;;;;;;;2.78;0.95;;;20.90;83.70;;;;;;4995296;28;20167;-84
2022/06/13 12:59:03;;;;;;;3.00;1.10;;;20.60;81.50;;;;;;4995644;28;20178;-84
2022/06/13 13:01:38;;;;;;;1.67;0.88;;;20.80;83.80;;;;;;4994706;28;20195;-83
2022/06/13 13:04:18;;;;;;;6.20;1.20;;;21.30;83.40;;;;;;4995763;28;20751;-84
2022/06/13 13:06:58;;;;;;;3.42;1.10;;;21.50;83.80;;;;;;4994803;28;20175;-83
2022/06/13 13:09:45;;;;;;;2.78;0.90;;;21.10;83.20;;;;;;4994239;28;20171;-84
2022/06/13 13:12:30;;;;;;;0.93;0.90;;;21.10;81.30;;;;;;4993711;28;20203;-83
2022/06/13 13:15:15;;;;;;;5.43;1.10;;;21.20;82.50;;;;;;4993571;28;20702;-83
2022/06/13 13:17:49;;;;;;;4.80;1.30;;;20.90;80.50;;;;;;4993879;28;20445;-83
2022/06/13 13:20:28;;;;;;;3.00;1.10;;;21.00;79.90;;;;;;4993631;28;20203;-82
2022/06/13 13:23:16;;;;;;;6.10;1.20;;;21.10;81.60;;;;;;4993208;28;20191;-80
2022/06/13 13:26:24;;;;;;;3.92;1.30;;;21.40;82.20;;;;;;4996096;28;20171;-81
2022/06/13 13:29:22;;;;;;;3.35;1.00;;;21.40;81.70;;;;;;5000157;28;20195;-87
2022/06/13 13:32:19;;;;;;;4.53;1.23;;;20.70;81.90;;;;;;4999988;28;20199;-83
2022/06/13 13:35:00;;;;;;;5.90;0.95;;;20.80;79.50;;;;;;4989161;28;20231;-83
2022/06/13 13:37:37;;;;;;;3.38;1.00;;;20.90;79.30;;;;;;4986194;28;20171;-86
2022/06/13 13:40:25;;;;;;;4.13;0.90;;;20.80;76.80;;;;;;4998923;28;20162;-84
2022/06/13 13:42:55;;;;;;;1.35;0.80;;;20.70;76.80;;;;;;4998407;28;20699;-83
2022/06/13 13:45:24;;;;;;;0.80;0.80;;;20.90;76.70;;;;;;4999462;28;20195;-82
2022/06/13 13:47:53;;;;;;;1.23;0.90;;;21.00;76.90;;;;;;4998652;28;20529;-85